Lexington, Indiana
Current Conditions -  °F | °C
As of 7:33 AM on Tuesday 27 Jan 2015 (Local Time) from KIMS Reporting Station
Overcast Overcast  
Wind Chill: -6°   Ceiling: 5500
Heat Index: -2°   Visibility: 10mi
Dew Point: -5°   Wind: 7mph
Humidity: 80%   Direction: 50°NE
Pressure: 29.99"   Gusts: NA
Location:  38.65°N, 85.63°W
Report Text: KIMS 271233Z AUTO 05006KT 10SM SCT021 SCT029 OVC055 M02/M05 A2999 RMK AO1
Loading
Personal Weather Stations






























Interactive Weather Map New forecast layout! Learn more

10-Day Weather Forecast

Advertisements
Track Severe Weather on mobile